sensor_id;sensor_type;location;lat;lon;timestamp;P1;durP1;ratioP1;P2;durP2;ratioP2
5393;SDS011;2720;52.396;10.064;2022-12-07T00:00:51;42.30;;;18.90;;
5393;SDS011;2720;52.396;10.064;2022-12-07T00:03:18;50.00;;;21.67;;
5393;SDS011;2720;52.396;10.064;2022-12-07T00:05:45;40.57;;;19.23;;
5393;SDS011;2720;52.396;10.064;2022-12-07T00:08:12;46.90;;;20.40;;
5393;SDS011;2720;52.396;10.064;2022-12-07T00:10:40;56.37;;;21.20;;
5393;SDS011;2720;52.396;10.064;2022-12-07T00:13:07;40.07;;;19.57;;
5393;SDS011;2720;52.396;10.064;2022-12-07T00:15:34;45.47;;;21.70;;
5393;SDS011;2720;52.396;10.064;2022-12-07T00:18:01;49.13;;;21.97;;
5393;SDS011;2720;52.396;10.064;2022-12-07T00:20:28;47.03;;;21.00;;
5393;SDS011;2720;52.396;10.064;2022-12-07T00:22:56;45.57;;;19.77;;
5393;SDS011;2720;52.396;10.064;2022-12-07T00:25:23;47.53;;;20.83;;
5393;SDS011;2720;52.396;10.064;2022-12-07T00:27:51;48.37;;;21.30;;
5393;SDS011;2720;52.396;10.064;2022-12-07T00:30:20;46.50;;;20.90;;
5393;SDS011;2720;52.396;10.064;2022-12-07T00:32:47;46.77;;;21.30;;
5393;SDS011;2720;52.396;10.064;2022-12-07T00:35:14;46.13;;;21.30;;
5393;SDS011;2720;52.396;10.064;2022-12-07T00:37:42;40.77;;;20.30;;
5393;SDS011;2720;52.396;10.064;2022-12-07T00:40:09;50.03;;;20.70;;
5393;SDS011;2720;52.396;10.064;2022-12-07T00:42:36;47.50;;;20.60;;
5393;SDS011;2720;52.396;10.064;2022-12-07T00:45:05;48.07;;;22.27;;
5393;SDS011;2720;52.396;10.064;2022-12-07T00:47:33;49.00;;;19.90;;
5393;SDS011;2720;52.396;10.064;2022-12-07T00:50:00;43.60;;;20.00;;
5393;SDS011;2720;52.396;10.064;2022-12-07T00:52:27;53.90;;;19.97;;
5393;SDS011;2720;52.396;10.064;2022-12-07T00:54:54;62.13;;;22.27;;
5393;SDS011;2720;52.396;10.064;2022-12-07T00:57:21;43.67;;;19.77;;
5393;SDS011;2720;52.396;10.064;2022-12-07T00:59:48;51.87;;;20.70;;
5393;SDS011;2720;52.396;10.064;2022-12-07T01:02:16;47.57;;;20.50;;
5393;SDS011;2720;52.396;10.064;2022-12-07T01:04:43;45.67;;;20.30;;
5393;SDS011;2720;52.396;10.064;2022-12-07T01:07:10;48.10;;;20.83;;
5393;SDS011;2720;52.396;10.064;2022-12-07T01:09:37;55.23;;;20.47;;
5393;SDS011;2720;52.396;10.064;2022-12-07T01:12:05;49.17;;;22.47;;
5393;SDS011;2720;52.396;10.064;2022-12-07T01:14:32;50.53;;;20.00;;
5393;SDS011;2720;52.396;10.064;2022-12-07T01:16:59;53.40;;;23.83;;
5393;SDS011;2720;52.396;10.064;2022-12-07T01:19:27;51.90;;;20.70;;
5393;SDS011;2720;52.396;10.064;2022-12-07T01:21:54;49.33;;;20.23;;
5393;SDS011;2720;52.396;10.064;2022-12-07T01:24:21;41.80;;;19.90;;
5393;SDS011;2720;52.396;10.064;2022-12-07T01:26:48;46.07;;;20.60;;
5393;SDS011;2720;52.396;10.064;2022-12-07T01:29:16;55.20;;;20.93;;
5393;SDS011;2720;52.396;10.064;2022-12-07T01:31:43;49.87;;;22.13;;
5393;SDS011;2720;52.396;10.064;2022-12-07T01:34:09;46.30;;;20.57;;
5393;SDS011;2720;52.396;10.064;2022-12-07T01:36:38;50.73;;;20.57;;
5393;SDS011;2720;52.396;10.064;2022-12-07T01:39:06;45.53;;;18.47;;
5393;SDS011;2720;52.396;10.064;2022-12-07T01:41:34;48.93;;;23.00;;
5393;SDS011;2720;52.396;10.064;2022-12-07T01:44:08;44.13;;;21.67;;
5393;SDS011;2720;52.396;10.064;2022-12-07T01:46:37;48.93;;;21.20;;
5393;SDS011;2720;52.396;10.064;2022-12-07T01:49:05;44.10;;;20.50;;
5393;SDS011;2720;52.396;10.064;2022-12-07T01:51:34;45.30;;;20.20;;
5393;SDS011;2720;52.396;10.064;2022-12-07T01:54:06;43.87;;;19.83;;
5393;SDS011;2720;52.396;10.064;2022-12-07T01:56:34;53.17;;;22.90;;
5393;SDS011;2720;52.396;10.064;2022-12-07T01:59:02;63.47;;;21.27;;
5393;SDS011;2720;52.396;10.064;2022-12-07T02:01:29;48.57;;;21.57;;
5393;SDS011;2720;52.396;10.064;2022-12-07T02:03:56;53.93;;;23.47;;
5393;SDS011;2720;52.396;10.064;2022-12-07T02:06:25;52.67;;;20.27;;
5393;SDS011;2720;52.396;10.064;2022-12-07T02:08:53;46.40;;;19.90;;
5393;SDS011;2720;52.396;10.064;2022-12-07T02:11:20;53.50;;;22.13;;
5393;SDS011;2720;52.396;10.064;2022-12-07T02:13:48;54.03;;;23.90;;
5393;SDS011;2720;52.396;10.064;2022-12-07T02:16:19;46.00;;;22.10;;
5393;SDS011;2720;52.396;10.064;2022-12-07T02:18:55;46.47;;;23.07;;
5393;SDS011;2720;52.396;10.064;2022-12-07T02:21:34;47.93;;;22.70;;
5393;SDS011;2720;52.396;10.064;2022-12-07T02:24:15;48.67;;;22.53;;
5393;SDS011;2720;52.396;10.064;2022-12-07T02:26:58;47.57;;;21.97;;
5393;SDS011;2720;52.396;10.064;2022-12-07T02:29:42;47.50;;;22.80;;
5393;SDS011;2720;52.396;10.064;2022-12-07T02:32:13;49.70;;;21.63;;
5393;SDS011;2720;52.396;10.064;2022-12-07T02:34:47;47.93;;;22.27;;
5393;SDS011;2720;52.396;10.064;2022-12-07T02:37:19;42.27;;;22.60;;
5393;SDS011;2720;52.396;10.064;2022-12-07T02:39:58;52.47;;;23.63;;
5393;SDS011;2720;52.396;10.064;2022-12-07T02:42:28;45.83;;;21.77;;
5393;SDS011;2720;52.396;10.064;2022-12-07T02:45:01;42.23;;;19.93;;
5393;SDS011;2720;52.396;10.064;2022-12-07T02:47:31;49.67;;;20.00;;
5393;SDS011;2720;52.396;10.064;2022-12-07T02:50:02;43.17;;;19.33;;
5393;SDS011;2720;52.396;10.064;2022-12-07T02:52:30;47.57;;;18.03;;
5393;SDS011;2720;52.396;10.064;2022-12-07T02:54:57;48.70;;;19.67;;
5393;SDS011;2720;52.396;10.064;2022-12-07T02:57:31;51.73;;;18.77;;
5393;SDS011;2720;52.396;10.064;2022-12-07T03:00:14;43.47;;;19.27;;
5393;SDS011;2720;52.396;10.064;2022-12-07T03:02:46;42.07;;;18.17;;
5393;SDS011;2720;52.396;10.064;2022-12-07T03:08:18;38.50;;;16.07;;
5393;SDS011;2720;52.396;10.064;2022-12-07T03:10:54;36.97;;;18.77;;
5393;SDS011;2720;52.396;10.064;2022-12-07T03:13:25;39.93;;;18.73;;
5393;SDS011;2720;52.396;10.064;2022-12-07T03:16:00;43.83;;;18.20;;
5393;SDS011;2720;52.396;10.064;2022-12-07T03:18:30;47.33;;;18.30;;
5393;SDS011;2720;52.396;10.064;2022-12-07T03:21:06;40.90;;;17.70;;
5393;SDS011;2720;52.396;10.064;2022-12-07T03:23:37;35.53;;;17.60;;
5393;SDS011;2720;52.396;10.064;2022-12-07T03:26:08;38.47;;;16.90;;
5393;SDS011;2720;52.396;10.064;2022-12-07T03:28:40;37.10;;;16.80;;
5393;SDS011;2720;52.396;10.064;2022-12-07T03:31:14;34.93;;;16.40;;
5393;SDS011;2720;52.396;10.064;2022-12-07T03:33:46;41.30;;;15.67;;
5393;SDS011;2720;52.396;10.064;2022-12-07T03:36:19;38.00;;;17.00;;
5393;SDS011;2720;52.396;10.064;2022-12-07T03:38:50;38.40;;;16.20;;
5393;SDS011;2720;52.396;10.064;2022-12-07T03:41:25;32.87;;;15.43;;
5393;SDS011;2720;52.396;10.064;2022-12-07T03:43:54;30.57;;;14.33;;
5393;SDS011;2720;52.396;10.064;2022-12-07T03:46:25;35.63;;;16.27;;
5393;SDS011;2720;52.396;10.064;2022-12-07T03:49:00;36.07;;;14.90;;
5393;SDS011;2720;52.396;10.064;2022-12-07T03:51:36;31.13;;;14.17;;
5393;SDS011;2720;52.396;10.064;2022-12-07T03:54:08;33.10;;;15.03;;
5393;SDS011;2720;52.396;10.064;2022-12-07T03:56:37;32.47;;;13.63;;
5393;SDS011;2720;52.396;10.064;2022-12-07T03:59:05;39.70;;;17.07;;
5393;SDS011;2720;52.396;10.064;2022-12-07T04:01:34;33.40;;;15.90;;
5393;SDS011;2720;52.396;10.064;2022-12-07T04:04:01;31.20;;;15.57;;
5393;SDS011;2720;52.396;10.064;2022-12-07T04:06:29;24.87;;;13.30;;
5393;SDS011;2720;52.396;10.064;2022-12-07T04:08:56;31.50;;;13.80;;
5393;SDS011;2720;52.396;10.064;2022-12-07T04:11:22;32.30;;;15.27;;
5393;SDS011;2720;52.396;10.064;2022-12-07T04:13:49;34.40;;;14.20;;
5393;SDS011;2720;52.396;10.064;2022-12-07T04:16:35;24.53;;;12.77;;
5393;SDS011;2720;52.396;10.064;2022-12-07T04:19:02;29.13;;;12.00;;
5393;SDS011;2720;52.396;10.064;2022-12-07T04:21:29;25.40;;;11.00;;
5393;SDS011;2720;52.396;10.064;2022-12-07T04:23:56;21.53;;;11.20;;
5393;SDS011;2720;52.396;10.064;2022-12-07T04:26:23;22.40;;;11.30;;
5393;SDS011;2720;52.396;10.064;2022-12-07T04:28:50;22.80;;;11.03;;
5393;SDS011;2720;52.396;10.064;2022-12-07T04:31:17;25.10;;;11.60;;
5393;SDS011;2720;52.396;10.064;2022-12-07T04:33:45;23.97;;;11.20;;
5393;SDS011;2720;52.396;10.064;2022-12-07T04:36:12;28.07;;;11.03;;
5393;SDS011;2720;52.396;10.064;2022-12-07T04:38:39;24.77;;;11.17;;
5393;SDS011;2720;52.396;10.064;2022-12-07T04:41:06;26.00;;;10.73;;
5393;SDS011;2720;52.396;10.064;2022-12-07T04:43:35;17.43;;;9.40;;
5393;SDS011;2720;52.396;10.064;2022-12-07T04:46:02;28.77;;;11.57;;
5393;SDS011;2720;52.396;10.064;2022-12-07T04:48:29;24.83;;;11.60;;
5393;SDS011;2720;52.396;10.064;2022-12-07T04:50:58;20.53;;;10.77;;
5393;SDS011;2720;52.396;10.064;2022-12-07T04:53:24;22.87;;;10.20;;
5393;SDS011;2720;52.396;10.064;2022-12-07T04:55:51;23.53;;;9.07;;
5393;SDS011;2720;52.396;10.064;2022-12-07T04:58:18;20.30;;;10.37;;
5393;SDS011;2720;52.396;10.064;2022-12-07T05:00:45;21.83;;;10.17;;
5393;SDS011;2720;52.396;10.064;2022-12-07T05:03:12;23.73;;;10.00;;
5393;SDS011;2720;52.396;10.064;2022-12-07T05:05:40;18.77;;;10.80;;
5393;SDS011;2720;52.396;10.064;2022-12-07T05:08:09;21.93;;;10.97;;
5393;SDS011;2720;52.396;10.064;2022-12-07T05:10:36;19.00;;;9.10;;
5393;SDS011;2720;52.396;10.064;2022-12-07T05:13:02;31.00;;;10.87;;
5393;SDS011;2720;52.396;10.064;2022-12-07T05:15:29;22.90;;;10.33;;
5393;SDS011;2720;52.396;10.064;2022-12-07T05:17:56;27.10;;;9.07;;
5393;SDS011;2720;52.396;10.064;2022-12-07T05:20:23;23.33;;;11.07;;
5393;SDS011;2720;52.396;10.064;2022-12-07T05:22:50;20.50;;;10.13;;
5393;SDS011;2720;52.396;10.064;2022-12-07T05:25:19;29.33;;;11.60;;
5393;SDS011;2720;52.396;10.064;2022-12-07T05:27:46;16.47;;;7.83;;
5393;SDS011;2720;52.396;10.064;2022-12-07T05:30:13;16.10;;;7.70;;
5393;SDS011;2720;52.396;10.064;2022-12-07T05:32:40;23.97;;;8.20;;
5393;SDS011;2720;52.396;10.064;2022-12-07T05:35:07;13.17;;;6.77;;
5393;SDS011;2720;52.396;10.064;2022-12-07T05:37:34;18.00;;;7.30;;
5393;SDS011;2720;52.396;10.064;2022-12-07T05:40:02;18.53;;;8.83;;
5393;SDS011;2720;52.396;10.064;2022-12-07T05:42:31;14.23;;;8.03;;
5393;SDS011;2720;52.396;10.064;2022-12-07T05:44:57;19.10;;;9.20;;
5393;SDS011;2720;52.396;10.064;2022-12-07T05:47:24;19.23;;;8.83;;
5393;SDS011;2720;52.396;10.064;2022-12-07T05:49:51;16.73;;;8.90;;
5393;SDS011;2720;52.396;10.064;2022-12-07T05:52:18;26.50;;;10.13;;
5393;SDS011;2720;52.396;10.064;2022-12-07T05:54:44;20.97;;;9.10;;
5393;SDS011;2720;52.396;10.064;2022-12-07T05:57:11;34.67;;;10.90;;
5393;SDS011;2720;52.396;10.064;2022-12-07T05:59:40;20.20;;;9.53;;
5393;SDS011;2720;52.396;10.064;2022-12-07T06:02:07;20.10;;;8.93;;
5393;SDS011;2720;52.396;10.064;2022-12-07T06:04:35;17.27;;;9.60;;
5393;SDS011;2720;52.396;10.064;2022-12-07T06:07:03;22.70;;;9.43;;
5393;SDS011;2720;52.396;10.064;2022-12-07T06:09:31;19.40;;;9.80;;
5393;SDS011;2720;52.396;10.064;2022-12-07T06:11:58;23.93;;;8.47;;
5393;SDS011;2720;52.396;10.064;2022-12-07T06:14:44;16.20;;;7.67;;
5393;SDS011;2720;52.396;10.064;2022-12-07T06:17:11;18.83;;;9.53;;
5393;SDS011;2720;52.396;10.064;2022-12-07T06:19:39;20.90;;;8.70;;
5393;SDS011;2720;52.396;10.064;2022-12-07T06:22:06;21.10;;;10.37;;
5393;SDS011;2720;52.396;10.064;2022-12-07T06:24:34;16.90;;;8.20;;
5393;SDS011;2720;52.396;10.064;2022-12-07T06:27:01;19.77;;;8.43;;
5393;SDS011;2720;52.396;10.064;2022-12-07T06:29:28;21.53;;;8.20;;
5393;SDS011;2720;52.396;10.064;2022-12-07T06:31:57;14.07;;;7.40;;
5393;SDS011;2720;52.396;10.064;2022-12-07T06:34:24;20.43;;;6.93;;
5393;SDS011;2720;52.396;10.064;2022-12-07T06:36:52;16.17;;;8.30;;
5393;SDS011;2720;52.396;10.064;2022-12-07T06:39:20;19.20;;;8.63;;
5393;SDS011;2720;52.396;10.064;2022-12-07T06:41:49;29.43;;;8.10;;
5393;SDS011;2720;52.396;10.064;2022-12-07T06:44:17;17.30;;;8.20;;
5393;SDS011;2720;52.396;10.064;2022-12-07T06:46:45;22.67;;;8.30;;
5393;SDS011;2720;52.396;10.064;2022-12-07T06:49:13;14.30;;;7.20;;
5393;SDS011;2720;52.396;10.064;2022-12-07T06:51:40;14.33;;;7.57;;
5393;SDS011;2720;52.396;10.064;2022-12-07T06:54:08;20.73;;;7.80;;
5393;SDS011;2720;52.396;10.064;2022-12-07T06:56:35;20.83;;;7.37;;
5393;SDS011;2720;52.396;10.064;2022-12-07T06:59:04;17.70;;;8.47;;
5393;SDS011;2720;52.396;10.064;2022-12-07T07:01:32;19.87;;;9.37;;
5393;SDS011;2720;52.396;10.064;2022-12-07T07:04:00;17.33;;;8.67;;
5393;SDS011;2720;52.396;10.064;2022-12-07T07:06:28;21.43;;;7.80;;
5393;SDS011;2720;52.396;10.064;2022-12-07T07:08:55;13.90;;;6.17;;
5393;SDS011;2720;52.396;10.064;2022-12-07T07:11:22;17.73;;;7.07;;
5393;SDS011;2720;52.396;10.064;2022-12-07T07:13:49;10.90;;;6.60;;
5393;SDS011;2720;52.396;10.064;2022-12-07T07:16:16;16.83;;;7.80;;
5393;SDS011;2720;52.396;10.064;2022-12-07T07:18:43;15.50;;;6.90;;
5393;SDS011;2720;52.396;10.064;2022-12-07T07:21:10;15.67;;;7.80;;
5393;SDS011;2720;52.396;10.064;2022-12-07T07:23:38;11.03;;;5.67;;
5393;SDS011;2720;52.396;10.064;2022-12-07T07:26:05;11.20;;;6.10;;
5393;SDS011;2720;52.396;10.064;2022-12-07T07:28:32;15.87;;;6.47;;
5393;SDS011;2720;52.396;10.064;2022-12-07T07:30:59;20.20;;;8.47;;
5393;SDS011;2720;52.396;10.064;2022-12-07T07:33:26;18.03;;;8.30;;
5393;SDS011;2720;52.396;10.064;2022-12-07T07:35:53;17.37;;;6.27;;
5393;SDS011;2720;52.396;10.064;2022-12-07T07:38:20;20.23;;;6.07;;
5393;SDS011;2720;52.396;10.064;2022-12-07T07:40:48;10.40;;;5.93;;
5393;SDS011;2720;52.396;10.064;2022-12-07T07:43:15;13.80;;;6.03;;
5393;SDS011;2720;52.396;10.064;2022-12-07T07:45:42;19.13;;;5.50;;
5393;SDS011;2720;52.396;10.064;2022-12-07T07:48:10;18.53;;;6.07;;
5393;SDS011;2720;52.396;10.064;2022-12-07T07:50:37;19.07;;;5.73;;
5393;SDS011;2720;52.396;10.064;2022-12-07T07:53:04;15.17;;;6.03;;
5393;SDS011;2720;52.396;10.064;2022-12-07T07:55:31;12.90;;;5.33;;
5393;SDS011;2720;52.396;10.064;2022-12-07T07:57:59;13.13;;;5.80;;
5393;SDS011;2720;52.396;10.064;2022-12-07T08:00:26;15.33;;;5.40;;
5393;SDS011;2720;52.396;10.064;2022-12-07T08:02:53;21.30;;;6.37;;
5393;SDS011;2720;52.396;10.064;2022-12-07T08:05:20;22.10;;;5.93;;
5393;SDS011;2720;52.396;10.064;2022-12-07T08:07:47;12.60;;;5.67;;
5393;SDS011;2720;52.396;10.064;2022-12-07T08:10:14;11.77;;;4.53;;
5393;SDS011;2720;52.396;10.064;2022-12-07T08:12:42;11.50;;;4.20;;
5393;SDS011;2720;52.396;10.064;2022-12-07T08:15:28;8.40;;;4.70;;
5393;SDS011;2720;52.396;10.064;2022-12-07T08:17:56;8.23;;;4.73;;
5393;SDS011;2720;52.396;10.064;2022-12-07T08:20:23;7.73;;;4.70;;
5393;SDS011;2720;52.396;10.064;2022-12-07T08:22:51;11.07;;;4.30;;
5393;SDS011;2720;52.396;10.064;2022-12-07T08:25:18;21.03;;;5.10;;
5393;SDS011;2720;52.396;10.064;2022-12-07T08:27:46;21.67;;;4.90;;
5393;SDS011;2720;52.396;10.064;2022-12-07T08:30:13;11.80;;;4.33;;
5393;SDS011;2720;52.396;10.064;2022-12-07T08:32:41;7.80;;;4.27;;
5393;SDS011;2720;52.396;10.064;2022-12-07T08:35:10;8.73;;;5.67;;
5393;SDS011;2720;52.396;10.064;2022-12-07T08:37:37;12.03;;;4.33;;
5393;SDS011;2720;52.396;10.064;2022-12-07T08:40:05;9.83;;;3.83;;
5393;SDS011;2720;52.396;10.064;2022-12-07T08:42:34;12.73;;;4.03;;
5393;SDS011;2720;52.396;10.064;2022-12-07T08:45:05;18.17;;;6.60;;
5393;SDS011;2720;52.396;10.064;2022-12-07T08:47:33;19.37;;;4.87;;
5393;SDS011;2720;52.396;10.064;2022-12-07T08:50:04;13.17;;;3.90;;
5393;SDS011;2720;52.396;10.064;2022-12-07T08:52:33;15.77;;;4.63;;
5393;SDS011;2720;52.396;10.064;2022-12-07T08:55:02;6.20;;;3.50;;
5393;SDS011;2720;52.396;10.064;2022-12-07T08:57:31;9.07;;;4.23;;
5393;SDS011;2720;52.396;10.064;2022-12-07T09:00:00;4.00;;;3.30;;
5393;SDS011;2720;52.396;10.064;2022-12-07T09:02:27;13.20;;;3.80;;
5393;SDS011;2720;52.396;10.064;2022-12-07T09:04:54;8.37;;;3.73;;
5393;SDS011;2720;52.396;10.064;2022-12-07T09:07:22;13.83;;;3.50;;
5393;SDS011;2720;52.396;10.064;2022-12-07T09:09:51;13.10;;;4.03;;
5393;SDS011;2720;52.396;10.064;2022-12-07T09:12:18;13.73;;;4.57;;
5393;SDS011;2720;52.396;10.064;2022-12-07T09:14:45;4.77;;;4.37;;
5393;SDS011;2720;52.396;10.064;2022-12-07T09:17:12;5.83;;;3.37;;
5393;SDS011;2720;52.396;10.064;2022-12-07T09:19:39;8.33;;;3.97;;
5393;SDS011;2720;52.396;10.064;2022-12-07T09:22:07;9.03;;;3.77;;
5393;SDS011;2720;52.396;10.064;2022-12-07T09:24:37;11.57;;;3.50;;
5393;SDS011;2720;52.396;10.064;2022-12-07T09:27:12;5.67;;;2.40;;
5393;SDS011;2720;52.396;10.064;2022-12-07T09:29:40;10.07;;;2.90;;
5393;SDS011;2720;52.396;10.064;2022-12-07T09:32:07;7.20;;;3.47;;
5393;SDS011;2720;52.396;10.064;2022-12-07T09:34:34;6.80;;;2.70;;
5393;SDS011;2720;52.396;10.064;2022-12-07T09:37:01;10.40;;;4.40;;
5393;SDS011;2720;52.396;10.064;2022-12-07T09:39:29;5.37;;;2.70;;
5393;SDS011;2720;52.396;10.064;2022-12-07T09:41:57;7.53;;;2.33;;
5393;SDS011;2720;52.396;10.064;2022-12-07T09:44:26;3.00;;;2.20;;
5393;SDS011;2720;52.396;10.064;2022-12-07T09:46:54;5.50;;;2.50;;
5393;SDS011;2720;52.396;10.064;2022-12-07T09:49:22;3.97;;;2.13;;
5393;SDS011;2720;52.396;10.064;2022-12-07T09:51:59;6.83;;;3.43;;
5393;SDS011;2720;52.396;10.064;2022-12-07T09:54:28;6.90;;;1.80;;
5393;SDS011;2720;52.396;10.064;2022-12-07T09:56:58;5.90;;;1.80;;
5393;SDS011;2720;52.396;10.064;2022-12-07T09:59:25;3.27;;;1.60;;
5393;SDS011;2720;52.396;10.064;2022-12-07T10:01:52;5.33;;;2.17;;
5393;SDS011;2720;52.396;10.064;2022-12-07T10:04:19;3.10;;;1.53;;
5393;SDS011;2720;52.396;10.064;2022-12-07T10:06:48;11.43;;;2.63;;
5393;SDS011;2720;52.396;10.064;2022-12-07T10:09:17;4.97;;;2.00;;
5393;SDS011;2720;52.396;10.064;2022-12-07T10:12:06;1.67;;;1.57;;
5393;SDS011;2720;52.396;10.064;2022-12-07T10:14:35;7.20;;;2.30;;
5393;SDS011;2720;52.396;10.064;2022-12-07T10:17:17;2.50;;;1.70;;
5393;SDS011;2720;52.396;10.064;2022-12-07T10:20:08;6.37;;;1.90;;
5393;SDS011;2720;52.396;10.064;2022-12-07T10:22:52;5.67;;;1.83;;
5393;SDS011;2720;52.396;10.064;2022-12-07T10:25:22;5.23;;;1.60;;
5393;SDS011;2720;52.396;10.064;2022-12-07T10:27:58;3.70;;;2.53;;
5393;SDS011;2720;52.396;10.064;2022-12-07T10:30:46;4.00;;;1.97;;
5393;SDS011;2720;52.396;10.064;2022-12-07T10:33:31;5.03;;;2.97;;
5393;SDS011;2720;52.396;10.064;2022-12-07T10:36:01;9.17;;;2.70;;
5393;SDS011;2720;52.396;10.064;2022-12-07T10:38:43;9.27;;;2.10;;
5393;SDS011;2720;52.396;10.064;2022-12-07T10:41:12;3.60;;;2.00;;
5393;SDS011;2720;52.396;10.064;2022-12-07T10:43:47;3.60;;;1.30;;
5393;SDS011;2720;52.396;10.064;2022-12-07T10:49:30;2.77;;;1.60;;
5393;SDS011;2720;52.396;10.064;2022-12-07T10:52:37;9.47;;;1.70;;
5393;SDS011;2720;52.396;10.064;2022-12-07T10:55:16;6.17;;;1.60;;
5393;SDS011;2720;52.396;10.064;2022-12-07T10:57:52;6.57;;;1.27;;
5393;SDS011;2720;52.396;10.064;2022-12-07T11:00:30;4.47;;;1.77;;
5393;SDS011;2720;52.396;10.064;2022-12-07T11:06:09;4.27;;;2.00;;
5393;SDS011;2720;52.396;10.064;2022-12-07T11:08:49;2.70;;;2.10;;
5393;SDS011;2720;52.396;10.064;2022-12-07T11:11:38;10.20;;;2.67;;
5393;SDS011;2720;52.396;10.064;2022-12-07T11:14:14;8.60;;;2.83;;
5393;SDS011;2720;52.396;10.064;2022-12-07T11:16:55;6.33;;;2.77;;
5393;SDS011;2720;52.396;10.064;2022-12-07T11:19:28;5.13;;;2.13;;
5393;SDS011;2720;52.396;10.064;2022-12-07T11:22:08;7.20;;;2.20;;
5393;SDS011;2720;52.396;10.064;2022-12-07T11:24:42;4.17;;;1.70;;
5393;SDS011;2720;52.396;10.064;2022-12-07T11:27:18;6.70;;;1.60;;
5393;SDS011;2720;52.396;10.064;2022-12-07T11:30:00;4.30;;;2.03;;
5393;SDS011;2720;52.396;10.064;2022-12-07T11:32:43;5.10;;;1.10;;
5393;SDS011;2720;52.396;10.064;2022-12-07T11:35:24;4.80;;;1.47;;
5393;SDS011;2720;52.396;10.064;2022-12-07T11:38:03;11.20;;;2.07;;
5393;SDS011;2720;52.396;10.064;2022-12-07T11:40:37;10.43;;;1.67;;
5393;SDS011;2720;52.396;10.064;2022-12-07T11:43:10;2.30;;;1.33;;
5393;SDS011;2720;52.396;10.064;2022-12-07T11:45:42;3.50;;;1.10;;
5393;SDS011;2720;52.396;10.064;2022-12-07T11:48:14;3.70;;;0.93;;
5393;SDS011;2720;52.396;10.064;2022-12-07T11:50:48;2.53;;;1.17;;
5393;SDS011;2720;52.396;10.064;2022-12-07T11:53:19;6.77;;;0.80;;
5393;SDS011;2720;52.396;10.064;2022-12-07T11:55:52;5.37;;;1.30;;
5393;SDS011;2720;52.396;10.064;2022-12-07T11:58:28;3.60;;;1.23;;
5393;SDS011;2720;52.396;10.064;2022-12-07T12:01:14;2.97;;;1.10;;
5393;SDS011;2720;52.396;10.064;2022-12-07T12:03:52;5.53;;;1.07;;
5393;SDS011;2720;52.396;10.064;2022-12-07T12:06:24;2.97;;;0.90;;
5393;SDS011;2720;52.396;10.064;2022-12-07T12:08:53;2.20;;;1.23;;
5393;SDS011;2720;52.396;10.064;2022-12-07T12:11:30;4.83;;;1.33;;
5393;SDS011;2720;52.396;10.064;2022-12-07T12:14:26;5.07;;;1.80;;
5393;SDS011;2720;52.396;10.064;2022-12-07T12:17:12;6.93;;;2.67;;
5393;SDS011;2720;52.396;10.064;2022-12-07T12:20:06;4.63;;;1.60;;
5393;SDS011;2720;52.396;10.064;2022-12-07T12:22:42;4.83;;;1.60;;
5393;SDS011;2720;52.396;10.064;2022-12-07T12:25:15;4.80;;;1.50;;
5393;SDS011;2720;52.396;10.064;2022-12-07T12:27:47;2.20;;;1.03;;
5393;SDS011;2720;52.396;10.064;2022-12-07T12:30:29;3.90;;;1.30;;
5393;SDS011;2720;52.396;10.064;2022-12-07T12:33:06;2.63;;;1.10;;
5393;SDS011;2720;52.396;10.064;2022-12-07T12:35:42;6.77;;;1.40;;
5393;SDS011;2720;52.396;10.064;2022-12-07T12:40:59;1.30;;;1.20;;
5393;SDS011;2720;52.396;10.064;2022-12-07T12:54:59;4.53;;;1.13;;
5393;SDS011;2720;52.396;10.064;2022-12-07T12:57:29;2.60;;;1.67;;
5393;SDS011;2720;52.396;10.064;2022-12-07T12:59:57;6.10;;;1.87;;
5393;SDS011;2720;52.396;10.064;2022-12-07T13:02:25;4.20;;;1.57;;
5393;SDS011;2720;52.396;10.064;2022-12-07T13:04:55;5.50;;;1.60;;
5393;SDS011;2720;52.396;10.064;2022-12-07T13:10:25;4.83;;;1.83;;
5393;SDS011;2720;52.396;10.064;2022-12-07T13:13:04;14.17;;;2.27;;
5393;SDS011;2720;52.396;10.064;2022-12-07T13:15:54;3.03;;;1.47;;
5393;SDS011;2720;52.396;10.064;2022-12-07T13:18:42;5.00;;;2.20;;
5393;SDS011;2720;52.396;10.064;2022-12-07T13:24:10;3.97;;;2.20;;
5393;SDS011;2720;52.396;10.064;2022-12-07T13:26:41;7.93;;;2.53;;
5393;SDS011;2720;52.396;10.064;2022-12-07T13:29:11;22.33;;;2.90;;
5393;SDS011;2720;52.396;10.064;2022-12-07T13:31:39;3.47;;;2.53;;
5393;SDS011;2720;52.396;10.064;2022-12-07T13:36:57;11.13;;;2.33;;
5393;SDS011;2720;52.396;10.064;2022-12-07T13:39:27;17.27;;;2.10;;
5393;SDS011;2720;52.396;10.064;2022-12-07T13:41:56;6.07;;;1.57;;
5393;SDS011;2720;52.396;10.064;2022-12-07T13:44:27;4.73;;;2.30;;
5393;SDS011;2720;52.396;10.064;2022-12-07T13:47:00;3.00;;;1.30;;
5393;SDS011;2720;52.396;10.064;2022-12-07T13:49:33;4.17;;;1.77;;
5393;SDS011;2720;52.396;10.064;2022-12-07T13:52:13;2.67;;;1.77;;
5393;SDS011;2720;52.396;10.064;2022-12-07T13:54:46;4.60;;;2.10;;
5393;SDS011;2720;52.396;10.064;2022-12-07T13:57:16;3.97;;;2.13;;
5393;SDS011;2720;52.396;10.064;2022-12-07T13:59:43;11.70;;;2.10;;
5393;SDS011;2720;52.396;10.064;2022-12-07T14:02:17;11.63;;;1.97;;
5393;SDS011;2720;52.396;10.064;2022-12-07T14:04:46;6.20;;;2.60;;
5393;SDS011;2720;52.396;10.064;2022-12-07T14:07:20;1.90;;;1.53;;
5393;SDS011;2720;52.396;10.064;2022-12-07T14:09:56;12.30;;;3.03;;
5393;SDS011;2720;52.396;10.064;2022-12-07T14:12:26;9.63;;;2.10;;
5393;SDS011;2720;52.396;10.064;2022-12-07T14:14:55;7.13;;;3.50;;
5393;SDS011;2720;52.396;10.064;2022-12-07T14:17:25;8.40;;;2.40;;
5393;SDS011;2720;52.396;10.064;2022-12-07T14:19:54;18.47;;;3.57;;
5393;SDS011;2720;52.396;10.064;2022-12-07T14:22:24;4.80;;;2.53;;
5393;SDS011;2720;52.396;10.064;2022-12-07T14:24:59;8.40;;;2.70;;
5393;SDS011;2720;52.396;10.064;2022-12-07T14:27:49;3.00;;;1.80;;
5393;SDS011;2720;52.396;10.064;2022-12-07T14:30:18;13.30;;;2.53;;
5393;SDS011;2720;52.396;10.064;2022-12-07T14:32:46;8.57;;;3.57;;
5393;SDS011;2720;52.396;10.064;2022-12-07T14:35:17;4.50;;;1.90;;
5393;SDS011;2720;52.396;10.064;2022-12-07T14:37:46;6.97;;;1.60;;
5393;SDS011;2720;52.396;10.064;2022-12-07T14:40:15;7.17;;;2.07;;
5393;SDS011;2720;52.396;10.064;2022-12-07T14:42:44;5.80;;;2.03;;
5393;SDS011;2720;52.396;10.064;2022-12-07T14:45:16;5.60;;;2.50;;
5393;SDS011;2720;52.396;10.064;2022-12-07T14:47:44;6.53;;;1.50;;
5393;SDS011;2720;52.396;10.064;2022-12-07T14:50:12;11.37;;;2.63;;
5393;SDS011;2720;52.396;10.064;2022-12-07T14:52:41;5.10;;;1.87;;
5393;SDS011;2720;52.396;10.064;2022-12-07T14:55:17;7.50;;;2.43;;
5393;SDS011;2720;52.396;10.064;2022-12-07T14:57:48;3.13;;;2.43;;
5393;SDS011;2720;52.396;10.064;2022-12-07T15:00:18;3.10;;;2.00;;
5393;SDS011;2720;52.396;10.064;2022-12-07T15:02:46;4.17;;;2.67;;
5393;SDS011;2720;52.396;10.064;2022-12-07T15:05:13;11.50;;;2.93;;
5393;SDS011;2720;52.396;10.064;2022-12-07T15:07:40;8.40;;;3.20;;
5393;SDS011;2720;52.396;10.064;2022-12-07T15:10:11;27.17;;;3.17;;
5393;SDS011;2720;52.396;10.064;2022-12-07T15:12:42;2.77;;;2.40;;
5393;SDS011;2720;52.396;10.064;2022-12-07T15:15:10;12.20;;;2.70;;
5393;SDS011;2720;52.396;10.064;2022-12-07T15:17:38;11.43;;;2.80;;
5393;SDS011;2720;52.396;10.064;2022-12-07T15:20:05;7.70;;;2.80;;
5393;SDS011;2720;52.396;10.064;2022-12-07T15:22:34;6.77;;;1.87;;
5393;SDS011;2720;52.396;10.064;2022-12-07T15:25:01;8.30;;;2.93;;
5393;SDS011;2720;52.396;10.064;2022-12-07T15:27:29;1.30;;;0.50;;
5393;SDS011;2720;52.396;10.064;2022-12-07T15:29:56;0.70;;;0.40;;
5393;SDS011;2720;52.396;10.064;2022-12-07T15:32:23;0.70;;;0.40;;
5393;SDS011;2720;52.396;10.064;2022-12-07T15:34:52;0.73;;;0.40;;
5393;SDS011;2720;52.396;10.064;2022-12-07T15:37:19;2.00;;;0.40;;
5393;SDS011;2720;52.396;10.064;2022-12-07T15:39:46;0.40;;;0.37;;